Time;durP1;ratioP1;P1;durP2;ratioP2;P2;SDS_P1;SDS_P2;PMS_P1;PMS_P2;Temp;Humidity;BMP_temperature;BMP_pressure;BME280_temperature;BME280_humidity;BME280_pressure;Samples;Min_cycle;Max_cycle;Signal;HPM_P1;HPM_P2
2021/08/27 00:01:24;;;;;;;5.60;3.28;;;;;;;14.47;nan;100333.47;5053988;28;20037;-80
2021/08/27 00:03:49;;;;;;;6.32;3.40;;;;;;;14.47;nan;100329.97;5051214;28;20029;-81
2021/08/27 00:06:15;;;;;;;5.47;3.80;;;;;;;14.48;nan;100335.13;5050071;28;20189;-79
2021/08/27 00:08:41;;;;;;;4.28;3.42;;;;;;;14.45;nan;100333.66;5046995;28;20065;-80
2021/08/27 00:11:07;;;;;;;5.35;3.33;;;;;;;14.44;nan;100333.81;5035849;28;20035;-83
2021/08/27 00:13:32;;;;;;;4.47;3.50;;;;;;;14.39;nan;100337.03;5052582;28;20279;-79
2021/08/27 00:15:58;;;;;;;5.65;3.33;;;;;;;14.42;nan;100330.56;5050404;28;20559;-79
2021/08/27 00:18:23;;;;;;;4.22;3.30;;;;;;;14.44;nan;100332.03;5034626;28;20028;-81
2021/08/27 00:20:49;;;;;;;5.35;3.97;;;;;;;14.44;nan;100328.50;5052757;28;20165;-81
2021/08/27 00:23:14;;;;;;;6.28;4.32;;;;;;;14.39;nan;100328.22;5029253;28;20037;-83
2021/08/27 00:25:39;;;;;;;5.50;4.15;;;;;;;14.36;nan;100342.72;5053941;28;20029;-81
2021/08/27 00:28:06;;;;;;;7.75;4.05;;;;;;;14.32;nan;100343.25;5042523;28;20132;-80
2021/08/27 00:30:32;;;;;;;4.93;3.83;;;;;;;14.28;nan;100344.63;5053837;28;20022;-80
2021/08/27 00:32:57;;;;;;;6.15;4.03;;;;;;;14.22;nan;100338.19;5051027;28;20487;-80
2021/08/27 00:35:23;;;;;;;4.75;3.65;;;;;;;14.23;nan;100345.19;5034832;28;20036;-80
2021/08/27 00:37:48;;;;;;;4.68;3.60;;;;;;;14.29;nan;100341.78;5049350;28;20079;-80
2021/08/27 00:40:14;;;;;;;5.28;3.88;;;;;;;14.35;nan;100340.22;5051820;28;20030;-79
2021/08/27 00:42:39;;;;;;;6.03;3.67;;;;;;;14.35;nan;100335.75;5051971;28;20116;-80
2021/08/27 00:45:06;;;;;;;6.55;4.07;;;;;;;14.35;nan;100334.91;5053685;28;20061;-79
2021/08/27 00:47:32;;;;;;;6.40;3.95;;;;;;;14.34;nan;100341.25;5034421;28;20076;-80
2021/08/27 00:49:57;;;;;;;5.18;3.70;;;;;;;14.32;nan;100341.41;5052136;28;20390;-81
2021/08/27 00:52:23;;;;;;;6.20;3.95;;;;;;;14.32;nan;100336.09;5051438;28;20124;-83
2021/08/27 00:54:51;;;;;;;6.25;4.18;;;;;;;14.32;nan;100346.75;5054639;28;20108;-82
2021/08/27 00:57:16;;;;;;;5.63;3.95;;;;;;;14.33;nan;100344.94;5056047;28;20047;-80
2021/08/27 00:59:42;;;;;;;4.00;3.30;;;;;;;14.34;nan;100347.38;5047625;28;20037;-80
2021/08/27 01:02:07;;;;;;;4.78;3.92;;;;;;;14.29;nan;100343.63;5052252;28;20433;-82
2021/08/27 01:04:35;;;;;;;5.32;3.95;;;;;;;14.30;nan;100343.47;5052043;28;20429;-81
2021/08/27 01:07:23;;;;;;;4.85;3.55;;;;;;;14.33;nan;100339.63;5036553;28;20518;-80
2021/08/27 01:10:11;;;;;;;5.65;3.78;;;;;;;14.33;nan;100344.94;5038052;28;20434;-79
2021/08/27 01:13:06;;;;;;;6.38;4.13;;;;;;;14.28;nan;100341.97;5054858;28;20041;-80
2021/08/27 01:16:09;;;;;;;6.70;4.57;;;;;;;14.21;nan;100349.84;5054436;28;20037;-81
2021/08/27 01:18:55;;;;;;;4.45;3.88;;;;;;;14.19;nan;100350.03;5049062;28;20032;-80
2021/08/27 01:21:40;;;;;;;5.60;3.83;;;;;;;14.21;nan;100352.50;5056533;28;20037;-81
2021/08/27 01:24:08;;;;;;;6.40;4.43;;;;;;;14.18;nan;100359.03;5055015;28;20041;-80
2021/08/27 01:26:38;;;;;;;5.20;4.00;;;;;;;14.13;nan;100357.88;5054847;28;20040;-83
2021/08/27 01:29:06;;;;;;;5.70;3.83;;;;;;;14.08;nan;100352.28;5054600;28;20061;-79
2021/08/27 01:31:46;;;;;;;5.45;3.97;;;;;;;14.05;nan;100353.47;5059414;28;20445;-79
2021/08/27 01:34:33;;;;;;;5.28;3.67;;;;;;;14.01;nan;100347.69;5049060;28;20501;-80
2021/08/27 01:36:59;;;;;;;5.78;3.60;;;;;;;13.99;nan;100357.69;5025119;28;20036;-81
2021/08/27 01:39:29;;;;;;;4.20;3.42;;;;;;;13.93;nan;100355.72;5035611;28;20048;-81
2021/08/27 01:41:56;;;;;;;6.53;3.87;;;;;;;13.89;nan;100354.41;5056319;28;20341;-80
2021/08/27 01:44:24;;;;;;;7.40;3.88;;;;;;;13.83;nan;100351.66;5054458;28;20276;-79
2021/08/27 01:46:52;;;;;;;4.43;2.97;;;;;;;13.78;nan;100358.31;5056512;28;20045;-80
2021/08/27 01:49:19;;;;;;;4.57;3.55;;;;;;;13.72;nan;100364.34;5039105;28;20033;-80
2021/08/27 01:51:47;;;;;;;4.90;3.30;;;;;;;13.72;nan;100364.34;5054552;28;20060;-79
2021/08/27 01:54:14;;;;;;;5.03;3.25;;;;;;;13.72;nan;100364.34;5051693;28;20048;-80
2021/08/27 01:56:41;;;;;;;3.90;2.90;;;;;;;13.73;nan;100367.81;5038052;28;20037;-80
2021/08/27 01:59:07;;;;;;;3.83;3.20;;;;;;;13.73;nan;100373.13;5056015;28;20026;-81
2021/08/27 02:01:34;;;;;;;4.40;3.28;;;;;;;13.74;nan;100369.47;5052066;28;20048;-80
2021/08/27 02:04:07;;;;;;;4.13;3.30;;;;;;;13.79;nan;100367.13;5053969;28;20044;-83
2021/08/27 02:06:34;;;;;;;4.40;3.10;;;;;;;13.74;nan;100366.81;5047163;28;20037;-82
2021/08/27 02:09:01;;;;;;;5.07;2.97;;;;;;;13.68;nan;100375.50;5054358;28;20032;-80
2021/08/27 02:11:28;;;;;;;4.15;3.17;;;;;;;13.63;nan;100372.53;5032166;28;20037;-80
2021/08/27 02:13:55;;;;;;;4.25;3.47;;;;;;;13.56;nan;100373.25;5051103;28;20056;-80
2021/08/27 02:16:21;;;;;;;3.47;2.85;;;;;;;13.54;nan;100374.44;5050228;28;20135;-80
2021/08/27 02:18:46;;;;;;;3.42;2.58;;;;;;;13.52;nan;100379.09;5049035;28;20052;-79
2021/08/27 02:21:15;;;;;;;3.78;2.90;;;;;;;13.49;nan;100372.28;5050408;28;20033;-81
2021/08/27 02:23:42;;;;;;;3.85;2.80;;;;;;;13.53;nan;100378.06;5053413;28;20045;-80
2021/08/27 02:26:10;;;;;;;3.90;3.13;;;;;;;13.48;nan;100375.94;5053431;28;20033;-80
2021/08/27 02:28:37;;;;;;;3.80;2.85;;;;;;;13.43;nan;100377.47;5053372;28;20041;-80
2021/08/27 02:31:04;;;;;;;4.85;3.28;;;;;;;13.36;nan;100386.13;5042848;28;20513;-80
2021/08/27 02:33:31;;;;;;;4.00;3.15;;;;;;;13.32;nan;100379.53;5063917;28;20071;-82
2021/08/27 02:35:58;;;;;;;4.80;3.00;;;;;;;13.31;nan;100375.19;5050127;28;20046;-83
2021/08/27 02:38:28;;;;;;;4.07;2.90;;;;;;;13.28;nan;100364.94;5054350;28;20376;-80
2021/08/27 02:40:53;;;;;;;4.07;2.90;;;;;;;13.26;nan;100371.38;5062353;28;20036;-81
2021/08/27 02:43:19;;;;;;;3.72;2.60;;;;;;;13.22;nan;100370.06;5053970;28;20036;-82
2021/08/27 02:45:44;;;;;;;4.68;2.80;;;;;;;13.14;nan;100361.13;5052810;28;20496;-81
2021/08/27 02:48:09;;;;;;;3.92;2.88;;;;;;;13.11;nan;100368.63;5040864;28;20037;-81
2021/08/27 02:50:43;;;;;;;3.83;2.63;;;;;;;13.07;nan;100362.00;5056698;28;20390;-80
2021/08/27 02:53:22;;;;;;;4.95;3.22;;;;;;;12.98;nan;100371.00;5060761;28;20033;-78
2021/08/27 02:55:54;;;;;;;4.28;2.70;;;;;;;12.92;nan;100360.06;5028613;28;20067;-81
2021/08/27 02:58:27;;;;;;;4.15;2.75;;;;;;;12.83;nan;100360.25;5055906;28;20032;-79
2021/08/27 03:01:00;;;;;;;4.30;2.80;;;;;;;12.77;nan;100363.59;5052976;28;20039;-80
2021/08/27 03:03:29;;;;;;;4.25;2.90;;;;;;;12.73;nan;100373.72;5050988;28;20033;-80
2021/08/27 03:06:02;;;;;;;4.68;2.60;;;;;;;12.69;nan;100372.41;5054503;28;20040;-80
2021/08/27 03:08:30;;;;;;;3.22;2.50;;;;;;;12.64;nan;100374.72;5048930;28;20041;-79
2021/08/27 03:11:10;;;;;;;4.97;3.42;;;;;;;12.62;nan;100371.41;5054926;28;20047;-81
2021/08/27 03:13:59;;;;;;;7.07;2.80;;;;;;;12.60;nan;100370.75;5052411;28;20036;-81
2021/08/27 03:16:26;;;;;;;5.30;2.92;;;;;;;12.56;nan;100367.63;5045615;28;20041;-80
2021/08/27 03:18:59;;;;;;;3.72;2.90;;;;;;;12.52;nan;100367.13;5053664;28;20033;-80
2021/08/27 03:21:33;;;;;;;4.00;3.20;;;;;;;12.53;nan;100363.47;5034545;28;20131;-82
2021/08/27 03:24:04;;;;;;;4.30;3.20;;;;;;;12.48;nan;100379.06;5044857;28;20044;-79
2021/08/27 03:26:32;;;;;;;3.85;3.17;;;;;;;12.45;nan;100373.28;5052604;28;20875;-82
2021/08/27 03:29:03;;;;;;;7.20;3.28;;;;;;;12.41;nan;100369.28;5053289;28;20040;-80
2021/08/27 03:31:30;;;;;;;4.30;3.10;;;;;;;12.37;nan;100373.25;5050805;28;20406;-80
2021/08/27 03:33:58;;;;;;;4.15;3.00;;;;;;;12.34;nan;100369.13;5028814;28;20037;-82
2021/08/27 03:36:28;;;;;;;5.60;3.60;;;;;;;12.29;nan;100368.81;5035263;28;20029;-82
2021/08/27 03:38:56;;;;;;;6.00;3.42;;;;;;;12.26;nan;100367.31;5049892;28;20521;-81
2021/08/27 03:41:25;;;;;;;4.03;3.20;;;;;;;12.22;nan;100373.94;5052138;28;20044;-83
2021/08/27 03:43:51;;;;;;;5.25;3.47;;;;;;;12.21;nan;100377.59;5049258;28;20269;-82
2021/08/27 03:46:17;;;;;;;7.25;3.53;;;;;;;12.18;nan;100377.94;5052151;28;20053;-82
2021/08/27 03:48:42;;;;;;;4.40;3.10;;;;;;;12.11;nan;100372.47;5037911;28;20046;-81
2021/08/27 03:51:08;;;;;;;5.67;3.13;;;;;;;12.08;nan;100366.66;5048007;28;20068;-80
2021/08/27 03:53:36;;;;;;;5.40;3.88;;;;;;;12.06;nan;100376.59;5031977;28;20037;-81
2021/08/27 03:56:03;;;;;;;4.93;3.20;;;;;;;12.03;nan;100376.91;5049160;28;20033;-80
2021/08/27 03:58:28;;;;;;;4.97;3.67;;;;;;;11.99;nan;100383.53;5050768;28;20029;-82
2021/08/27 04:00:56;;;;;;;5.60;3.90;;;;;;;11.94;nan;100392.00;5024159;28;20028;-83
2021/08/27 04:03:22;;;;;;;4.88;3.45;;;;;;;11.91;nan;100387.00;5029330;28;20483;-82
2021/08/27 04:06:00;;;;;;;4.78;3.53;;;;;;;11.93;nan;100390.31;5045850;28;20045;-82
2021/08/27 04:08:25;;;;;;;5.45;3.60;;;;;;;11.87;nan;100389.19;5043177;28;20045;-82
2021/08/27 04:10:51;;;;;;;5.53;3.80;;;;;;;11.82;nan;100388.81;5049286;28;20047;-81
2021/08/27 04:13:16;;;;;;;5.68;4.32;;;;;;;11.81;nan;100391.63;5053900;28;20094;-82
2021/08/27 04:15:41;;;;;;;6.20;4.80;;;;;;;11.75;nan;100397.53;5043275;28;20052;-82
2021/08/27 04:18:07;;;;;;;7.03;4.55;;;;;;;11.70;nan;100395.38;5043558;28;20382;-81
2021/08/27 04:20:32;;;;;;;6.55;5.00;;;;;;;11.74;nan;100395.91;5053907;28;20505;-82
2021/08/27 04:22:58;;;;;;;5.63;4.90;;;;;;;11.78;nan;100397.25;5051620;28;20044;-82
2021/08/27 04:25:23;;;;;;;6.88;4.78;;;;;;;11.79;nan;100389.13;5051988;28;20562;-81
2021/08/27 04:27:48;;;;;;;7.80;5.03;;;;;;;11.80;nan;100392.63;5052483;28;20056;-83
2021/08/27 04:30:13;;;;;;;6.57;4.90;;;;;;;11.80;nan;100398.72;5049776;28;20052;-83
2021/08/27 04:32:39;;;;;;;6.03;4.20;;;;;;;11.83;nan;100401.06;5052816;28;20108;-80
2021/08/27 04:35:04;;;;;;;7.38;4.68;;;;;;;11.84;nan;100404.53;5046310;28;20513;-81
2021/08/27 04:37:30;;;;;;;7.35;4.40;;;;;;;11.85;nan;100398.25;5051551;28;20041;-82
2021/08/27 04:39:55;;;;;;;6.93;4.60;;;;;;;11.86;nan;100392.75;5052593;28;20037;-81
2021/08/27 04:42:21;;;;;;;5.60;4.22;;;;;;;11.87;nan;100401.59;5051703;28;20425;-82
2021/08/27 04:44:46;;;;;;;5.47;3.85;;;;;;;11.92;nan;100401.94;5057818;28;20068;-83
2021/08/27 04:47:11;;;;;;;6.88;3.90;;;;;;;11.93;nan;100403.56;5051581;28;20087;-81
2021/08/27 04:49:37;;;;;;;5.05;3.42;;;;;;;11.93;nan;100408.88;5061075;28;20033;-82
2021/08/27 04:52:02;;;;;;;5.25;3.70;;;;;;;11.89;nan;100405.75;5053520;28;20140;-81
2021/08/27 04:54:27;;;;;;;6.65;3.03;;;;;;;11.90;nan;100402.09;5030008;28;20415;-81
2021/08/27 04:56:53;;;;;;;4.57;3.28;;;;;;;11.91;nan;100402.91;5057562;28;20086;-82
2021/08/27 04:59:18;;;;;;;4.13;3.20;;;;;;;11.92;nan;100411.69;5057296;28;20445;-81
2021/08/27 05:01:44;;;;;;;4.50;3.47;;;;;;;11.95;nan;100408.72;5054240;28;20033;-83
2021/08/27 05:04:09;;;;;;;4.90;3.45;;;;;;;11.94;nan;100417.66;5057707;28;20028;-82
2021/08/27 05:06:34;;;;;;;5.05;3.72;;;;;;;11.94;nan;100417.66;5062821;28;20041;-80
2021/08/27 05:08:59;;;;;;;5.40;4.00;;;;;;;11.93;nan;100410.72;5064201;28;20106;-82
2021/08/27 05:11:25;;;;;;;7.88;3.70;;;;;;;11.91;nan;100410.84;5064263;28;20124;-81
2021/08/27 05:13:50;;;;;;;4.28;3.05;;;;;;;11.97;nan;100418.16;5059989;28;20034;-79
2021/08/27 05:16:15;;;;;;;4.20;3.10;;;;;;;12.00;nan;100423.13;5061431;28;20033;-81
2021/08/27 05:18:41;;;;;;;5.45;3.35;;;;;;;12.12;nan;100421.00;5034814;28;20552;-82
2021/08/27 05:21:06;;;;;;;3.42;2.63;;;;;;;12.23;nan;100425.16;5054914;28;20040;-79
2021/08/27 05:23:31;;;;;;;5.40;3.20;;;;;;;12.37;nan;100427.16;5052868;28;20029;-82
2021/08/27 05:25:57;;;;;;;5.43;2.97;;;;;;;12.55;nan;100421.66;5056189;28;20044;-81
2021/08/27 05:28:22;;;;;;;3.47;2.58;;;;;;;12.71;nan;100429.59;5055794;28;20067;-80
2021/08/27 05:30:47;;;;;;;4.85;2.60;;;;;;;12.85;nan;100438.69;5052658;28;20040;-82
2021/08/27 05:33:13;;;;;;;5.18;2.55;;;;;;;13.04;nan;100432.19;5055534;28;20033;-81
2021/08/27 05:35:38;;;;;;;3.28;2.20;;;;;;;13.20;nan;100441.91;5055987;28;20040;-80
2021/08/27 05:38:03;;;;;;;6.18;2.80;;;;;;;13.47;nan;100442.53;5055115;28;20041;-80
2021/08/27 05:40:29;;;;;;;4.28;2.10;;;;;;;13.70;nan;100443.41;5060070;28;20048;-80
2021/08/27 05:42:54;;;;;;;4.18;2.60;;;;;;;14.01;nan;100451.38;5054176;28;20040;-80
2021/08/27 05:45:19;;;;;;;4.78;2.30;;;;;;;14.35;nan;100452.81;5055070;28;20052;-81
2021/08/27 05:47:45;;;;;;;4.40;2.20;;;;;;;14.74;nan;100459.00;5054624;28;20553;-80
2021/08/27 05:50:14;;;;;;;4.40;2.20;;;;;;;15.09;nan;100470.78;5056153;28;20025;-80
2021/08/27 05:52:39;;;;;;;5.20;2.00;;;;;;;15.25;nan;100456.44;5048827;28;20072;-79
2021/08/27 05:55:05;;;;;;;4.63;2.00;;;;;;;15.71;nan;100457.09;5062780;28;20025;-81
2021/08/27 05:57:30;;;;;;;2.97;1.70;;;;;;;15.90;nan;100461.00;5062626;28;20047;-82
2021/08/27 05:59:56;;;;;;;3.30;1.70;;;;;;;16.29;nan;100465.09;5054874;28;20056;-81
2021/08/27 06:02:21;;;;;;;3.35;1.60;;;;;;;16.60;nan;100465.78;5062721;28;20064;-83
2021/08/27 06:04:46;;;;;;;3.83;2.03;;;;;;;17.03;nan;100469.19;5055767;28;20190;-83
2021/08/27 06:07:12;;;;;;;2.28;1.40;;;;;;;17.11;nan;100466.41;5055527;28;20043;-82
2021/08/27 06:09:37;;;;;;;4.13;1.50;;;;;;;17.04;nan;100464.69;5056067;28;20029;-82
2021/08/27 06:12:03;;;;;;;3.72;1.52;;;;;;;17.34;nan;100471.44;5055623;28;20514;-81
2021/08/27 06:14:28;;;;;;;3.97;1.40;;;;;;;17.35;nan;100462.41;5052990;28;20056;-81
2021/08/27 06:16:53;;;;;;;4.30;1.40;;;;;;;17.62;nan;100462.53;5054445;28;20394;-80
2021/08/27 06:19:19;;;;;;;3.05;1.30;;;;;;;17.76;nan;100468.75;5036452;28;20090;-82
2021/08/27 06:21:44;;;;;;;2.58;1.35;;;;;;;18.17;nan;100473.22;5053082;28;20047;-80
2021/08/27 06:24:09;;;;;;;3.45;1.33;;;;;;;18.60;nan;100478.22;5052007;28;20111;-80
2021/08/27 06:26:35;;;;;;;2.17;1.13;;;;;;;18.98;nan;100478.44;5047994;28;20048;-78
2021/08/27 06:29:03;;;;;;;3.92;1.30;;;;;;;19.24;nan;100477.56;5053510;28;20036;-80
2021/08/27 06:31:28;;;;;;;3.15;1.30;;;;;;;19.04;nan;100482.13;5051417;28;20033;-81
2021/08/27 06:33:53;;;;;;;;;;;;;;;19.03;nan;100486.66;5052996;28;20487;-81
2021/08/27 06:36:19;;;;;;;;;;;;;;;18.85;nan;100487.31;5054405;28;19928;-79
2021/08/27 06:38:44;;;;;;;;;;;;;;;18.82;nan;100489.56;5050454;28;19916;-79
2021/08/27 06:41:10;;;;;;;;;;;;;;;18.64;nan;100482.97;5034406;28;19927;-80
2021/08/27 06:43:36;;;;;;;;;;;;;;;18.92;nan;100484.63;5035211;28;20015;-81
2021/08/27 06:46:04;;;;;;;;;;;;;;;18.74;nan;100487.09;5056471;28;20150;-79
2021/08/27 06:48:30;;;;;;;;;;;;;;;18.70;nan;100488.53;5062814;28;19913;-80
2021/08/27 06:50:55;;;;;;;;;;;;;;;17.99;nan;100489.84;5039081;28;20011;-78
2021/08/27 06:53:20;;;;;;;;;;;;;;;17.23;nan;100496.03;5060566;28;19920;-81
2021/08/27 06:55:46;;;;;;;;;;;;;;;16.61;nan;100500.25;5063380;28;19923;-80
2021/08/27 06:58:11;;;;;;;;;;;;;;;16.11;nan;100491.38;5049471;28;19928;-79
2021/08/27 07:00:37;;;;;;;;;;;;;;;16.14;nan;100494.50;5046369;28;19921;-81
2021/08/27 07:03:02;;;;;;;;;;;;;;;15.88;nan;100499.53;5035790;28;19916;-81
2021/08/27 07:05:28;;;;;;;;;;;;;;;15.87;nan;100498.72;5049110;28;19917;-80
2021/08/27 07:07:53;;;;;;;;;;;;;;;15.96;nan;100498.59;5051342;28;19928;-80
2021/08/27 07:10:19;;;;;;;;;;;;;;;16.10;nan;100505.72;5046975;28;19972;-86
2021/08/27 07:12:44;;;;;;;;;;;;;;;16.04;nan;100499.31;5057466;28;20001;-79
2021/08/27 07:15:10;;;;;;;;;;;;;;;16.10;nan;100500.41;5055595;28;20258;-83
2021/08/27 07:17:35;;;;;;;;;;;;;;;16.22;nan;100508.72;5057491;28;19917;-80
2021/08/27 07:20:00;;;;;;;;;;;;;;;16.32;nan;100510.06;5052945;28;19917;-81
2021/08/27 07:22:25;;;;;;;;;;;;;;;16.40;nan;100508.28;5054026;28;19923;-81
2021/08/27 07:24:51;;;;;;;;;;;;;;;16.33;nan;100508.25;5055880;28;19959;-80
2021/08/27 07:27:16;;;;;;;;;;;;;;;16.35;nan;100504.38;5055773;28;19923;-80
2021/08/27 07:29:41;;;;;;;;;;;;;;;16.50;nan;100508.81;5051944;28;19917;-80
2021/08/27 07:32:11;;;;;;;;;;;;;;;16.50;nan;100514.16;5033459;28;19956;-81
2021/08/27 07:34:36;;;;;;;;;;;;;;;16.31;nan;100507.59;5052555;28;19916;-79
2021/08/27 07:37:01;;;;;;;;;;;;;;;16.32;nan;100509.25;5046580;28;20406;-77
2021/08/27 07:39:27;;;;;;;;;;;;;;;16.11;nan;100507.38;5045231;28;19923;-81
2021/08/27 07:41:52;;;;;;;;;;;;;;;15.96;nan;100502.06;5056205;28;19921;-81
2021/08/27 07:44:17;;;;;;;;;;;;;;;16.09;nan;100510.25;5039392;28;19923;-82
2021/08/27 07:46:42;;;;;;;;;;;;;;;15.70;nan;100505.25;5063199;28;20325;-83
2021/08/27 07:49:08;;;;;;;;;;;;;;;15.88;nan;100508.34;5042907;28;19917;-83
2021/08/27 07:51:33;;;;;;;;;;;;;;;16.27;nan;100506.31;5054015;28;19963;-83
2021/08/27 07:53:58;;;;;;;;;;;;;;;17.31;nan;100517.28;5063573;28;19958;-81
2021/08/27 07:56:23;;;;;;;;;;;;;;;17.65;nan;100517.47;5058956;28;19920;-81
2021/08/27 07:58:49;;;;;;;;;;;;;;;17.41;nan;100519.59;5057452;28;20317;-81
2021/08/27 08:01:14;;;;;;;;;;;;;;;17.20;nan;100517.81;5039814;28;19941;-82
2021/08/27 08:03:39;;;;;;;;;;;;;;;16.96;nan;100524.44;5038129;28;19913;-82
2021/08/27 08:06:04;;;;;;;;;;;;;;;17.02;nan;100514.81;5044911;28;19916;-81
2021/08/27 08:08:29;;;;;;;;;;;;;;;16.86;nan;100516.75;5043598;28;19959;-82
2021/08/27 08:10:55;;;;;;;;;;;;;;;16.63;nan;100519.59;5054542;28;19917;-81
2021/08/27 08:13:20;;;;;;;;;;;;;;;16.64;nan;100520.44;5065214;28;19917;-84
2021/08/27 08:15:45;;;;;;;;;;;;;;;16.49;nan;100517.81;5059842;28;20620;-81
2021/08/27 08:18:11;;;;;;;;;;;;;;;16.26;nan;100523.34;5047843;28;19920;-83
2021/08/27 08:20:36;;;;;;;;;;;;;;;16.43;nan;100523.94;5061675;28;19916;-81
2021/08/27 08:23:01;;;;;;;;;;;;;;;17.01;nan;100522.00;5061707;28;19935;-82
2021/08/27 08:25:28;;;;;;;;;;;;;;;18.38;nan;100513.22;5064456;28;19919;-80
2021/08/27 08:27:53;;;;;;;;;;;;;;;18.45;nan;100513.22;5054175;28;19920;-81
2021/08/27 08:30:19;;;;;;;;;;;;;;;18.23;nan;100521.41;5058473;28;19974;-81
2021/08/27 08:32:44;;;;;;;;;;;;;;;18.22;nan;100521.63;5056538;28;19913;-83
2021/08/27 08:35:09;;;;;;;;;;;;;;;19.07;nan;100522.75;5047954;28;20003;-81
2021/08/27 08:37:43;;;;;;;;;;;;;;;20.23;nan;100523.81;5061507;28;19995;-80
2021/08/27 08:40:09;;;;;;;;;;;;;;;21.25;nan;100520.16;5048213;28;19917;-81
2021/08/27 08:42:35;;;;;;;;;;;;;;;20.90;nan;100526.88;5062751;28;20325;-80
2021/08/27 08:45:01;;;;;;;;;;;;;;;20.12;nan;100519.16;5065446;28;19928;-82
2021/08/27 08:47:28;;;;;;;;;;;;;;;20.56;nan;100526.31;5061208;28;19956;-83
2021/08/27 08:49:55;;;;;;;;;;;;;;;21.33;nan;100531.47;5058282;28;19966;-83
2021/08/27 08:52:22;;;;;;;;;;;;;;;21.69;nan;100529.03;5057408;28;19917;-81
2021/08/27 08:54:52;;;;;;;;;;;;;;;21.92;nan;100526.47;5048179;28;19913;-84
2021/08/27 08:57:21;;;;;;;;;;;;;;;21.84;nan;100529.47;5052787;28;19920;-80
2021/08/27 08:59:46;;;;;;;;;;;;;;;21.59;nan;100522.28;5048685;28;19915;-80
2021/08/27 09:02:12;;;;;;;;;;;;;;;21.27;nan;100520.78;5065947;28;19916;-81
2021/08/27 09:04:37;;;;;;;;;;;;;;;21.63;nan;100522.69;5057740;28;19944;-81
2021/08/27 09:07:03;;;;;;;;;;;;;;;22.84;nan;100531.59;5045887;28;19928;-82
2021/08/27 09:09:29;;;;;;;;;;;;;;;23.86;nan;100526.84;5061408;28;20340;-82
2021/08/27 09:11:55;;;;;;;;;;;;;;;23.79;nan;100524.28;5048146;28;19917;-83
2021/08/27 09:14:26;;;;;;;;;;;;;;;24.00;nan;100522.78;5041315;28;19936;-82
2021/08/27 09:17:00;;;;;;;;;;;;;;;24.02;nan;100531.47;5061392;28;19921;-80
2021/08/27 09:19:47;;;;;;;;;;;;;;;23.63;nan;100530.41;5053007;28;19917;-83
2021/08/27 09:22:12;;;;;;;;;;;;;;;22.75;nan;100524.88;5049897;28;19916;-83
2021/08/27 09:24:37;;;;;;;;;;;;;;;21.51;nan;100525.31;5047219;28;19917;-83
2021/08/27 09:27:04;;;;;;;4.10;1.50;;;;;;;21.21;nan;100519.78;5033425;28;20835;-84
2021/08/27 09:29:35;;;;;;;3.10;1.20;;;;;;;21.50;nan;100529.06;5025365;28;20458;-83
2021/08/27 09:32:17;;;;;;;3.47;1.50;;;;;;;21.42;nan;100522.06;5024536;28;20037;-82
2021/08/27 09:34:42;;;;;;;6.40;1.70;;;;;;;21.07;nan;100529.03;5049463;28;20033;-84
2021/08/27 09:37:07;;;;;;;3.63;1.65;;;;;;;20.37;nan;100524.56;5035068;28;20098;-83
2021/08/27 09:39:34;;;;;;;3.55;1.42;;;;;;;19.75;nan;100528.81;5053923;28;20112;-81
2021/08/27 09:42:00;;;;;;;3.13;1.58;;;;;;;19.50;nan;100535.66;5028696;28;20045;-81
2021/08/27 09:44:25;;;;;;;3.30;1.58;;;;;;;19.12;nan;100530.16;5019650;28;20451;-82
2021/08/27 09:46:50;;;;;;;4.35;1.60;;;;;;;19.05;nan;100537.38;5047881;28;20040;-84
2021/08/27 09:49:25;;;;;;;4.03;1.63;;;;;;;18.96;nan;100541.31;5032619;28;20037;-83
2021/08/27 09:51:50;;;;;;;3.38;1.70;;;;;;;18.79;nan;100531.00;5051769;28;20043;-82
2021/08/27 09:54:29;;;;;;;2.72;1.70;;;;;;;18.72;nan;100538.19;5048560;28;20037;-81
2021/08/27 09:57:00;;;;;;;4.03;1.63;;;;;;;18.74;nan;100530.75;5053604;28;20051;-83
2021/08/27 09:59:53;;;;;;;3.95;1.70;;;;;;;18.74;nan;100528.09;5027694;28;20040;-84
2021/08/27 10:02:31;;;;;;;3.05;1.90;;;;;;;18.58;nan;100525.78;5045370;28;20040;-83
2021/08/27 10:04:59;;;;;;;4.68;1.90;;;;;;;19.05;nan;100527.50;5054883;28;20037;-84
2021/08/27 10:07:37;;;;;;;4.25;2.17;;;;;;;19.40;nan;100518.34;5025329;28;20044;-83
2021/08/27 10:10:05;;;;;;;3.42;1.98;;;;;;;19.51;nan;100517.72;5031700;28;20033;-83
2021/08/27 10:12:32;;;;;;;4.07;1.92;;;;;;;19.34;nan;100511.97;5033536;28;20510;-82
2021/08/27 10:14:59;;;;;;;4.68;2.28;;;;;;;19.05;nan;100521.31;5030001;28;20079;-82
2021/08/27 10:17:25;;;;;;;5.35;2.30;;;;;;;18.83;nan;100516.16;5031218;28;20040;-82
2021/08/27 10:19:50;;;;;;;3.45;2.28;;;;;;;18.62;nan;100514.47;5043078;28;20040;-80
2021/08/27 10:22:16;;;;;;;4.30;2.35;;;;;;;18.67;nan;100512.00;5048842;28;20833;-81
2021/08/27 10:24:43;;;;;;;4.05;2.38;;;;;;;18.61;nan;100515.47;5059883;28;20040;-81
2021/08/27 10:27:10;;;;;;;3.00;2.10;;;;;;;18.88;nan;100510.19;5038026;28;20518;-80
2021/08/27 10:29:46;;;;;;;4.80;2.40;;;;;;;19.01;nan;100509.34;5034494;28;20048;-80
2021/08/27 10:32:11;;;;;;;3.85;2.00;;;;;;;19.12;nan;100506.03;5054466;28;20097;-81
2021/08/27 10:34:43;;;;;;;3.05;2.15;;;;;;;19.24;nan;100504.38;5035624;28;20090;-83
2021/08/27 10:37:29;;;;;;;3.25;1.92;;;;;;;19.33;nan;100502.28;5048774;28;20037;-81
2021/08/27 10:39:54;;;;;;;4.38;2.53;;;;;;;19.24;nan;100501.69;5053621;28;20095;-82
2021/08/27 10:42:46;;;;;;;4.43;2.70;;;;;;;19.10;nan;100506.25;5042720;28;20029;-83
2021/08/27 10:45:11;;;;;;;4.47;2.60;;;;;;;19.29;nan;100501.88;5055360;28;20061;-83
2021/08/27 10:48:10;;;;;;;3.92;2.60;;;;;;;19.31;nan;100504.38;5042353;28;20041;-82
2021/08/27 10:50:41;;;;;;;4.05;2.60;;;;;;;19.52;nan;100508.63;5036412;28;20108;-79
2021/08/27 10:53:30;;;;;;;5.13;2.53;;;;;;;19.54;nan;100506.53;5055542;28;20044;-81
2021/08/27 10:55:56;;;;;;;4.88;2.85;;;;;;;19.71;nan;100514.97;5043525;28;20028;-83
2021/08/27 10:58:37;;;;;;;4.13;2.80;;;;;;;19.53;nan;100504.91;5060515;28;20059;-82
2021/08/27 11:01:03;;;;;;;3.77;2.70;;;;;;;19.69;nan;100512.53;5063105;28;20036;-82
2021/08/27 11:04:01;;;;;;;3.28;2.28;;;;;;;19.89;nan;100506.25;5053338;28;20037;-82
2021/08/27 11:06:26;;;;;;;3.75;2.30;;;;;;;19.75;nan;100499.28;5049721;28;20049;-82
2021/08/27 11:08:52;;;;;;;3.30;2.20;;;;;;;19.62;nan;100500.97;5029053;28;20052;-84
2021/08/27 11:11:17;;;;;;;4.03;2.22;;;;;;;19.53;nan;100504.91;5051002;28;20748;-83
2021/08/27 11:13:42;;;;;;;4.50;2.50;;;;;;;19.23;nan;100508.06;5049146;28;20119;-83
2021/08/27 11:16:23;;;;;;;5.22;3.03;;;;;;;18.67;nan;100503.97;5029562;28;20029;-84
2021/08/27 11:18:50;;;;;;;4.43;3.00;;;;;;;18.71;nan;100504.41;5048515;28;20086;-84
2021/08/27 11:21:31;;;;;;;5.18;2.70;;;;;;;18.72;nan;100505.22;5024746;28;20052;-82
2021/08/27 11:24:17;;;;;;;6.40;3.80;;;;;;;18.50;nan;100501.91;5029763;28;20047;-83
2021/08/27 11:26:59;;;;;;;5.00;4.00;;;;;;;17.78;nan;100509.47;5049607;28;20188;-84
2021/08/27 11:29:41;;;;;;;7.55;4.85;;;;;;;17.08;nan;100512.19;5042053;28;20047;-82
2021/08/27 11:32:08;;;;;;;7.72;4.55;;;;;;;16.67;nan;100515.53;5047417;28;20037;-82
2021/08/27 11:34:52;;;;;;;5.70;4.43;;;;;;;16.76;nan;100514.38;5036780;28;20040;-82
2021/08/27 11:37:18;;;;;;;6.30;4.95;;;;;;;16.71;nan;100511.47;5030501;28;20048;-83
2021/08/27 11:39:45;;;;;;;8.15;5.10;;;;;;;16.85;nan;100512.44;5037882;28;20047;-81
2021/08/27 11:42:12;;;;;;;9.43;5.10;;;;;;;17.01;nan;100497.13;5028017;28;20127;-83
2021/08/27 11:44:42;;;;;;;6.88;5.10;;;;;;;17.06;nan;100497.38;5020054;28;20029;-81
2021/08/27 11:47:13;;;;;;;7.68;4.50;;;;;;;17.44;nan;100511.19;5045195;28;20041;-81
2021/08/27 11:49:56;;;;;;;8.60;4.28;;;;;;;17.49;nan;100500.72;5015906;28;20045;-82
2021/08/27 11:52:27;;;;;;;5.18;2.90;;;;;;;17.78;nan;100507.66;5027526;28;20111;-82
2021/08/27 11:55:03;;;;;;;;;;;;;;;18.16;nan;100507.19;5037531;28;20525;-83
2021/08/27 11:57:29;;;;;;;2.88;2.22;;;;;;;18.41;nan;100496.72;5046239;28;19924;-82
2021/08/27 12:00:13;;;;;;;3.78;2.60;;;;;;;18.69;nan;100511.81;5022980;28;20033;-82
2021/08/27 12:02:39;;;;;;;2.55;2.00;;;;;;;18.68;nan;100504.78;5041188;28;20040;-81
2021/08/27 12:05:10;;;;;;;4.00;2.50;;;;;;;18.87;nan;100503.97;5026752;28;20040;-82